Forest Hills, Michigan
Current Conditions -  °F | °C
As of 4:53 PM on Sunday 21 Dec 2014 (Local Time) from KGRR Reporting Station
Haze Haze  
Wind Chill: 25°   Ceiling: 23000
Heat Index: 32°   Visibility: 6mi
Dew Point: 25°   Wind: 8mph
Humidity: 75%   Direction: 140°SE
Pressure: 30.15"   Gusts: NA
Location:  42.9453°N, 85.6127°W
Report Text: KGRR 212153Z 14007KT 6SM HZ SCT050 SCT100 BKN230 00/M04 A3015 RMK AO2 SLP219 T00001039
Loading
Personal Weather Stations






























Interactive Weather Map New forecast layout! Learn more

10-Day Weather Forecast

Advertisements
Track Severe Weather on mobile